Time;durP1;ratioP1;P1;durP2;ratioP2;P2;SDS_P1;SDS_P2;PMS_P1;PMS_P2;Temp;Humidity;BMP_temperature;BMP_pressure;BME280_temperature;BME280_humidity;BME280_pressure;Samples;Min_cycle;Max_cycle;Signal;HPM_P1;HPM_P2
2023/01/17 00:02:04;;;;;;;;;;;;;;;3.03;100.00;97008.56;5056345;28;19928;-63
2023/01/17 00:09:59;;;;;;;;;;;;;;;2.97;100.00;97025.03;5067037;28;19924;-62
2023/01/17 00:12:26;;;;;;;;;;;;;;;2.95;100.00;97023.53;5067399;28;19928;-63
2023/01/17 00:14:53;;;;;;;;;;;;;;;2.94;100.00;97032.06;5080969;28;19923;-63
2023/01/17 00:17:18;;;;;;;;;;;;;;;2.85;100.00;97039.44;5055330;28;19924;-62
2023/01/17 01:34:02;;;;;;;;;;;;;;;1.76;100.00;97157.66;5065017;28;19962;-59
2023/01/17 01:36:27;;;;;;;;;;;;;;;1.77;100.00;97155.91;5071282;28;20359;-59
2023/01/17 01:38:53;;;;;;;;;;;;;;;1.82;100.00;97161.47;5071771;28;19916;-59
2023/01/17 01:41:18;;;;;;;;;;;;;;;1.87;100.00;97166.25;5060040;28;19950;-59
2023/01/17 01:43:48;;;;;;;;;;;;;;;1.93;100.00;97178.53;5058905;28;19923;-59
2023/01/17 01:46:33;;;;;;;;;;;;;;;1.97;100.00;97191.81;5064735;28;20285;-59
2023/01/17 01:49:02;;;;;;;;;;;;;;;2.00;100.00;97179.75;5053518;28;19938;-59
2023/01/17 01:51:37;;;;;;;;;;;;;;;2.04;100.00;97181.16;5066175;28;20421;-59
2023/01/17 01:54:09;;;;;;;;;;;;;;;2.07;100.00;97196.19;5072101;28;19927;-59
2023/01/17 01:56:35;;;;;;;;;;;;;;;2.10;100.00;97195.97;5073841;28;19978;-59
2023/01/17 01:59:02;;;;;;;;;;;;;;;2.08;100.00;97202.88;5085858;28;20000;-59
2023/01/17 02:01:29;;;;;;;;;;;;;;;2.09;100.00;97204.47;5055643;28;19924;-59
2023/01/17 02:03:54;;;;;;;;;;;;;;;2.13;100.00;97199.22;5089646;28;20475;-60
2023/01/17 02:06:28;;;;;;;;;;;;;;;2.15;100.00;97199.94;5074806;28;19920;-61
2023/01/17 02:08:54;;;;;;;;;;;;;;;2.19;100.00;97208.94;5074664;28;19923;-59
2023/01/17 02:11:20;;;;;;;;;;;;;;;2.22;100.00;97201.94;5065071;28;19967;-60
2023/01/17 02:13:45;;;;;;;;;;;;;;;2.17;100.00;97210.75;5061356;28;19924;-60
2023/01/17 02:16:16;;;;;;;;;;;;;;;2.18;100.00;97209.84;5064907;28;20387;-60
2023/01/17 02:18:41;;;;;;;;;;;;;;;2.05;100.00;97207.34;5074859;28;19924;-60
2023/01/17 02:21:23;;;;;;;;;;;;;;;2.06;100.00;97212.31;5067260;28;19921;-59
2023/01/17 02:23:54;;;;;;;;;;;;;;;1.96;100.00;97215.53;5062146;28;19921;-59
2023/01/17 02:26:19;;;;;;;;;;;;;;;1.89;100.00;97207.53;5068035;28;19920;-59
2023/01/17 02:28:57;;;;;;;;;;;;;;;1.87;100.00;97215.25;5074889;28;19973;-59
2023/01/17 02:31:35;;;;;;;;;;;;;;;1.80;100.00;97211.47;5073482;28;19999;-60
2023/01/17 02:34:06;;;;;;;;;;;;;;;1.74;100.00;97214.41;5067904;28;20019;-61
2023/01/17 02:36:35;;;;;;;;;;;;;;;1.62;100.00;97213.47;5071046;28;19967;-60
2023/01/17 02:39:09;;;;;;;;;;;;;;;1.57;100.00;97220.56;5065504;28;19927;-60
2023/01/17 02:41:37;;;;;;;;;;;;;;;1.55;100.00;97222.38;5070682;28;19931;-61
2023/01/17 02:44:03;;;;;;;;;;;;;;;1.47;100.00;97238.06;5070133;28;20288;-59
2023/01/17 02:46:28;;;;;;;;;;;;;;;1.53;100.00;97239.41;5073802;28;19917;-59
2023/01/17 02:48:55;;;;;;;;;;;;;;;1.60;100.00;97246.50;5074793;28;20446;-59
2023/01/17 02:51:26;;;;;;;;;;;;;;;1.61;100.00;97250.69;5067073;28;20376;-60
2023/01/17 02:53:57;;;;;;;;;;;;;;;1.64;100.00;97248.84;5078918;28;20283;-60
2023/01/17 02:56:32;;;;;;;;;;;;;;;1.56;100.00;97256.94;5073064;28;19916;-59
2023/01/17 02:59:00;;;;;;;;;;;;;;;1.56;100.00;97252.69;5072638;28;20007;-59
2023/01/17 03:01:30;;;;;;;;;;;;;;;1.57;100.00;97248.44;5066562;28;19924;-60
2023/01/17 03:03:59;;;;;;;;;;;;;;;1.58;100.00;97258.47;5073113;28;19924;-60
2023/01/17 03:06:29;;;;;;;;;;;;;;;1.61;100.00;97259.97;5073385;28;20390;-59
2023/01/17 03:08:54;;;;;;;;;;;;;;;1.55;100.00;97250.25;5073997;28;19920;-59
2023/01/17 03:11:19;;;;;;;;;;;;;;;1.44;100.00;97256.00;5065688;28;19995;-59
2023/01/17 03:13:45;;;;;;;;;;;;;;;1.36;100.00;97259.00;5063638;28;19925;-60
2023/01/17 03:16:13;;;;;;;;;;;;;;;1.34;100.00;97262.53;5054241;28;20035;-60
2023/01/17 03:18:38;;;;;;;;;;;;;;;1.29;100.00;97260.31;5070874;28;20007;-59
2023/01/17 03:21:04;;;;;;;;;;;;;;;1.22;100.00;97270.00;5066117;28;20022;-59
2023/01/17 03:23:29;;;;;;;;;;;;;;;1.24;100.00;97267.34;5064604;28;20001;-59
2023/01/17 03:25:54;;;;;;;;;;;;;;;1.22;100.00;97270.00;5073017;28;19924;-59
2023/01/17 03:28:19;;;;;;;;;;;;;;;1.25;100.00;97269.81;5076337;28;19920;-59
2023/01/17 03:30:44;;;;;;;;;;;;;;;1.17;100.00;97274.53;5088130;28;19924;-59
2023/01/17 03:33:10;;;;;;;;;;;;;;;1.13;100.00;97273.91;5075710;28;19924;-61
2023/01/17 03:35:35;;;;;;;;;;;;;;;1.10;100.00;97271.56;5073794;28;19955;-61
2023/01/17 03:38:00;;;;;;;;;;;;;;;1.06;100.00;97267.59;5072800;28;20046;-60
2023/01/17 03:40:25;;;;;;;;;;;;;;;0.93;100.00;97277.66;5066466;28;19999;-60
2023/01/17 03:42:51;;;;;;;;;;;;;;;0.87;100.00;97277.19;5072094;28;20395;-60
2023/01/17 03:45:16;;;;;;;;;;;;;;;0.84;100.00;97269.81;5073388;28;19924;-59
2023/01/17 03:47:41;;;;;;;;;;;;;;;0.86;100.00;97273.06;5072743;28;20359;-60
2023/01/17 03:50:07;;;;;;;;;;;;;;;0.81;100.00;97275.88;5063524;28;19916;-60
2023/01/17 03:52:32;;;;;;;;;;;;;;;0.79;100.00;97273.44;5074179;28;20339;-59
2023/01/17 03:54:57;;;;;;;;;;;;;;;0.72;100.00;97263.75;5073257;28;20015;-59
2023/01/17 03:57:22;;;;;;;;;;;;;;;0.66;100.00;97257.34;5072434;28;19916;-60
2023/01/17 03:59:47;;;;;;;;;;;;;;;0.68;100.00;97264.84;5073228;28;20375;-59
2023/01/17 04:02:13;;;;;;;;;;;;;;;0.72;100.00;97268.81;5017794;28;19925;-59
2023/01/17 04:04:38;;;;;;;;;;;;;;;0.68;100.00;97269.91;5041795;28;20364;-59
2023/01/17 04:07:03;;;;;;;;;;;;;;;0.71;100.00;97282.34;5052736;28;19917;-59
2023/01/17 04:09:32;;;;;;;;;;;;;;;0.80;100.00;97282.63;5052925;28;19953;-59
2023/01/17 04:11:58;;;;;;;;;;;;;;;0.96;100.00;97286.78;5041172;28;19924;-59
2023/01/17 04:14:23;;;;;;;;;;;;;;;1.13;100.00;97288.28;5052267;28;19986;-59
2023/01/17 04:16:48;;;;;;;;;;;;;;;1.23;100.00;97299.47;5060399;28;19924;-59
2023/01/17 04:19:13;;;;;;;;;;;;;;;1.43;100.00;97297.44;5064457;28;20300;-60
2023/01/17 04:21:39;;;;;;;;;;;;;;;1.52;100.00;97284.19;5070628;28;19924;-59
2023/01/17 04:24:04;;;;;;;;;;;;;;;1.53;100.00;97279.94;5060094;28;19920;-59
2023/01/17 04:26:29;;;;;;;;;;;;;;;1.54;100.00;97287.44;5072080;28;19920;-59
2023/01/17 04:28:55;;;;;;;;;;;;;;;1.53;100.00;97283.28;5072734;28;19921;-59
2023/01/17 04:31:20;;;;;;;;;;;;;;;1.49;100.00;97292.00;5070123;28;19991;-60
2023/01/17 04:33:45;;;;;;;;;;;;;;;1.51;100.00;97300.28;5066693;28;19917;-60
2023/01/17 04:36:10;;;;;;;;;;;;;;;1.56;100.00;97297.47;5071612;28;19926;-59
2023/01/17 04:38:35;;;;;;;;;;;;;;;1.59;100.00;97302.38;5072374;28;19927;-60
2023/01/17 04:41:00;;;;;;;;;;;;;;;1.54;100.00;97302.66;5069542;28;19926;-60
2023/01/17 04:43:26;;;;;;;;;;;;;;;1.60;100.00;97309.84;5071141;28;20012;-60
2023/01/17 04:45:55;;;;;;;;;;;;;;;1.64;100.00;97312.19;5071567;28;19916;-61
2023/01/17 04:48:20;;;;;;;;;;;;;;;1.56;100.00;97312.69;5070906;28;19927;-61
2023/01/17 04:50:45;;;;;;;;;;;;;;;1.52;100.00;97318.84;5065084;28;19924;-60
2023/01/17 04:53:11;;;;;;;;;;;;;;;1.60;100.00;97329.31;5071245;28;20012;-59
2023/01/17 04:55:36;;;;;;;;;;;;;;;1.62;100.00;97332.56;5064142;28;19942;-59
2023/01/17 04:58:01;;;;;;;;;;;;;;;1.66;100.00;97339.06;5071919;28;19963;-59
2023/01/17 05:00:26;;;;;;;;;;;;;;;1.65;100.00;97334.91;5065006;28;20362;-59
2023/01/17 05:02:52;;;;;;;;;;;;;;;1.68;100.00;97337.25;5064576;28;19979;-60
2023/01/17 05:05:17;;;;;;;;;;;;;;;1.67;100.00;97338.16;5052757;28;19952;-60
2023/01/17 05:07:42;;;;;;;;;;;;;;;1.68;100.00;97329.66;5058663;28;20267;-59
2023/01/17 05:10:08;;;;;;;;;;;;;;;1.61;100.00;97333.47;5061671;28;19978;-60
2023/01/17 05:12:33;;;;;;;;;;;;;;;1.60;100.00;97332.66;5066592;28;19921;-59
2023/01/17 05:14:58;;;;;;;;;;;;;;;1.70;100.00;97337.97;5065065;28;19973;-60
2023/01/17 05:17:23;;;;;;;;;;;;;;;1.56;100.00;97340.53;5070211;28;20414;-59
2023/01/17 05:19:49;;;;;;;;;;;;;;;1.40;100.00;97338.13;5071822;28;19981;-63
2023/01/17 05:22:14;;;;;;;;;;;;;;;1.32;100.00;97351.28;5061182;28;19968;-59
2023/01/17 05:24:43;;;;;;;;;;;;;;;1.34;100.00;97346.13;5064942;28;20328;-60
2023/01/17 05:27:09;;;;;;;;;;;;;;;1.44;100.00;97352.25;5076255;28;20050;-59
2023/01/17 05:29:34;;;;;;;;;;;;;;;1.48;100.00;97340.19;5088809;28;20028;-59
2023/01/17 05:31:59;;;;;;;;;;;;;;;1.58;100.00;97343.81;5040168;28;19931;-59
2023/01/17 05:34:24;;;;;;;;;;;;;;;1.59;100.00;97358.09;5046006;28;20438;-62
2023/01/17 05:36:50;;;;;;;;;;;;;;;1.70;100.00;97350.66;5051639;28;20004;-59
2023/01/17 05:39:15;;;;;;;;;;;;;;;1.71;100.00;97359.03;5062901;28;19920;-62
2023/01/17 05:41:40;;;;;;;;;;;;;;;1.62;100.00;97352.84;5066376;28;19921;-60
2023/01/17 05:44:05;;;;;;;;;;;;;;;1.42;100.00;97352.34;5050521;28;20441;-60
2023/01/17 05:46:31;;;;;;;;;;;;;;;1.44;100.00;97353.06;5051198;28;19921;-59
2023/01/17 05:48:56;;;;;;;;;;;;;;;1.31;100.00;97362.31;5051709;28;19967;-60
2023/01/17 05:51:21;;;;;;;;;;;;;;;1.27;100.00;97363.41;5056420;28;19955;-59
2023/01/17 05:53:46;;;;;;;;;;;;;;;1.24;100.00;97364.41;5056896;28;19987;-59
2023/01/17 05:56:11;;;;;;;;;;;;;;;1.20;100.00;97359.63;5085294;28;19921;-59
2023/01/17 05:58:38;;;;;;;;;;;;;;;1.12;100.00;97355.03;5071373;28;19916;-60
2023/01/17 06:01:04;;;;;;;;;;;;;;;1.09;100.00;97356.03;5055000;28;19978;-59
2023/01/17 06:03:29;;;;;;;;;;;;;;;1.21;100.00;97364.59;5039069;28;20356;-59
2023/01/17 06:05:54;;;;;;;;;;;;;;;1.21;100.00;97364.59;5049236;28;19928;-62
2023/01/17 06:08:20;;;;;;;;;;;;;;;1.15;100.00;97357.34;5051349;28;19975;-62
2023/01/17 06:10:45;;;;;;;;;;;;;;;1.19;100.00;97363.88;5041130;28;19967;-63
2023/01/17 06:13:12;;;;;;;;;;;;;;;1.26;100.00;97366.84;5041461;28;20026;-62
2023/01/17 06:15:38;;;;;;;;;;;;;;;1.23;100.00;97372.13;5046747;28;20054;-62
2023/01/17 06:18:07;;;;;;;;;;;;;;;1.17;100.00;97373.28;5030904;28;20011;-62
2023/01/17 06:20:33;;;;;;;;;;;;;;;1.17;100.00;97365.69;5042890;28;19939;-62
2023/01/17 06:22:59;;;;;;;;;;;;;;;1.19;100.00;97370.66;5042711;28;19917;-61
2023/01/17 06:25:25;;;;;;;;;;;;;;;1.22;100.00;97381.41;5066731;28;20015;-62
2023/01/17 06:27:53;;;;;;;;;;;;;;;1.22;100.00;97381.41;5051037;28;20000;-61
2023/01/17 06:30:18;;;;;;;;;;;;;;;1.23;100.00;97382.25;5058336;28;20372;-62
2023/01/17 06:32:43;;;;;;;;;;;;;;;1.25;100.00;97390.53;5050179;28;19917;-61
2023/01/17 06:35:08;;;;;;;;;;;;;;;1.23;100.00;97392.38;5051208;28;19967;-62
2023/01/17 06:37:33;;;;;;;;;;;;;;;1.25;100.00;97396.44;5050713;28;19916;-62
2023/01/17 06:39:59;;;;;;;;;;;;;;;1.23;100.00;97389.84;5051671;28;19921;-62
2023/01/17 06:42:24;;;;;;;;;;;;;;;1.28;100.00;97390.38;5048502;28;19925;-62
2023/01/17 06:44:49;;;;;;;;;;;;;;;1.27;100.00;97397.13;5053578;28;19948;-62
2023/01/17 06:47:14;;;;;;;;;;;;;;;1.35;100.00;97391.59;5054321;28;20311;-62
2023/01/17 06:49:39;;;;;;;;;;;;;;;1.31;100.00;97389.38;5054355;28;19921;-62
2023/01/17 06:52:05;;;;;;;;;;;;;;;1.34;100.00;97384.09;5047568;28;20348;-62
2023/01/17 06:54:30;;;;;;;;;;;;;;;1.27;100.00;97389.53;5053027;28;19924;-61
2023/01/17 06:56:55;;;;;;;;;;;;;;;1.29;100.00;97384.41;5054405;28;19921;-62
2023/01/17 06:59:20;;;;;;;;;;;;;;;1.27;100.00;97386.22;5054276;28;19940;-63
2023/01/17 07:01:45;;;;;;;;;;;;;;;1.30;100.00;97393.59;5046491;28;19925;-62
2023/01/17 07:04:10;;;;;;;;;;;;;;;1.19;100.00;97389.22;5036155;28;19932;-63
2023/01/17 07:06:36;;;;;;;;;;;;;;;1.16;100.00;97380.97;5045231;28;19921;-63
2023/01/17 07:09:02;;;;;;;;;;;;;;;1.08;100.00;97377.19;5054152;28;19924;-64
2023/01/17 07:11:28;;;;;;;;;;;;;;;1.15;100.00;97387.75;5051211;28;20411;-62
2023/01/17 07:13:53;;;;;;;;;;;;;;;1.14;100.00;97378.50;5042612;28;19966;-62
2023/01/17 07:16:18;;;;;;;;;;;;;;;1.09;100.00;97376.28;5053101;28;19925;-62
2023/01/17 07:18:44;;;;;;;;;;;;;;;1.08;100.00;97382.25;5053321;28;20328;-62
2023/01/17 07:21:13;;;;;;;;;;;;;;;0.98;100.00;97381.16;5043472;28;19924;-62
2023/01/17 07:23:38;;;;;;;;;;;;;;;1.00;100.00;97381.06;5038487;28;20011;-62
2023/01/17 07:26:03;;;;;;;;;;;;;;;1.04;100.00;97383.34;5046270;28;20382;-63
2023/01/17 07:28:28;;;;;;;;;;;;;;;1.14;100.00;97381.03;5048862;28;19966;-62
2023/01/17 07:30:54;;;;;;;;;;;;;;;1.02;100.00;97377.53;5049498;28;20088;-62
2023/01/17 07:33:19;;;;;;;;;;;;;;;1.02;100.00;97367.41;5048188;28;19952;-62
2023/01/17 07:35:45;;;;;;;;;;;;;;;1.08;100.00;97371.28;5047785;28;20289;-60
2023/01/17 07:38:14;;;;;;;;;;;;;;;1.07;100.00;97370.47;5046878;28;19925;-59
2023/01/17 07:40:39;;;;;;;;;;;;;;;1.19;100.00;97373.19;5039387;28;20426;-60
2023/01/17 07:43:13;;;;;;;;;;;;;;;1.35;100.00;97368.00;5047852;28;20011;-62
2023/01/17 07:45:43;;;;;;;;;;;;;;;1.33;100.00;97367.28;5054057;28;19921;-62
2023/01/17 07:48:09;;;;;;;;;;;;;;;1.35;100.00;97366.28;5047437;28;19948;-60
2023/01/17 07:50:34;;;;;;;;;;;;;;;1.40;100.00;97366.00;5055508;28;19983;-62
2023/01/17 07:52:59;;;;;;;;;;;;;;;1.44;100.00;97353.06;5060764;28;19990;-60
2023/01/17 07:55:24;;;;;;;;;;;;;;;1.45;100.00;97359.75;5036462;28;19921;-61
2023/01/17 07:57:49;;;;;;;;;;;;;;;1.55;100.00;97359.19;5041993;28;19928;-66
2023/01/17 08:00:15;;;;;;;;;;;;;;;1.67;100.00;97357.63;5032490;28;19944;-61
2023/01/17 08:02:40;;;;;;;;;;;;;;;1.53;100.00;97345.81;5059103;28;19925;-62
2023/01/17 08:05:05;;;;;;;;;;;;;;;1.54;100.00;97352.47;5072441;28;20331;-63
2023/01/17 08:07:31;;;;;;;;;;;;;;;1.69;100.00;97348.22;5068769;28;20014;-62
2023/01/17 08:09:56;;;;;;;;;;;;;;;1.74;100.00;97347.00;5069033;28;19931;-61
2023/01/17 08:12:21;;;;;;;;;;;;;;;1.88;100.00;97341.06;5059945;28;20399;-62
2023/01/17 08:14:46;;;;;;;;;;;;;;;1.94;100.00;97343.19;5064999;28;19924;-62
2023/01/17 08:17:13;;;;;;;;;;;;;;;2.00;100.00;97331.03;5050700;28;20070;-60
2023/01/17 08:19:38;;;;;;;;;;;;;;;1.87;100.00;97331.03;5043137;28;19917;-61
2023/01/17 08:22:04;;;;;;;;;;;;;;;1.71;100.00;97321.03;5047004;28;20003;-61
2023/01/17 08:24:29;;;;;;;;;;;;;;;1.60;100.00;97322.53;5035473;28;19925;-60
2023/01/17 08:26:55;;;;;;;;;;;;;;;1.55;100.00;97316.09;5047967;28;20003;-61
2023/01/17 08:29:20;;;;;;;;;;;;;;;1.59;100.00;97315.03;5049643;28;19916;-60
2023/01/17 08:31:45;;;;;;;;;;;;;;;1.48;100.00;97313.16;5050080;28;19932;-60
2023/01/17 08:34:12;;;;;;;;;;;;;;;1.43;100.00;97313.44;5044369;28;19917;-63
2023/01/17 08:36:38;;;;;;;;;;;;;;;1.42;100.00;97303.41;5040581;28;19917;-61
2023/01/17 08:39:03;;;;;;;;;;;;;;;1.45;100.00;97308.28;5050664;28;20011;-62
2023/01/17 08:41:28;;;;;;;;;;;;;;;1.50;100.00;97308.81;5042223;28;19987;-62
2023/01/17 08:43:53;;;;;;;;;;;;;;;1.49;100.00;97306.34;5047541;28;20284;-62
2023/01/17 08:46:19;;;;;;;;;;;;;;;1.49;100.00;97304.66;5051818;28;19917;-64
2023/01/17 08:48:44;;;;;;;;;;;;;;;1.44;100.00;97307.47;5052376;28;19921;-66
2023/01/17 08:51:10;;;;;;;;;;;;;;;1.46;100.00;97312.44;5055790;28;19921;-62
2023/01/17 08:53:35;;;;;;;;;;;;;;;1.57;100.00;97309.22;5043459;28;19924;-61
2023/01/17 08:56:01;;;;;;;;;;;;;;;1.65;100.00;97308.75;5051470;28;19990;-62
2023/01/17 08:58:31;;;;;;;;;;;;;;;1.72;100.00;97318.41;5048497;28;19917;-61
2023/01/17 09:01:00;;;;;;;;;;;;;;;1.76;100.00;97313.94;5029535;28;19935;-62
2023/01/17 09:03:25;;;;;;;;;;;;;;;1.82;100.00;97320.38;5046878;28;20685;-62
2023/01/17 09:05:59;;;;;;;;;;;;;;;1.88;100.00;97320.78;5051672;28;19928;-67
2023/01/17 09:08:24;;;;;;;;;;;;;;;1.94;100.00;97327.19;5052175;28;19963;-61
2023/01/17 09:10:49;;;;;;;;;;;;;;;2.06;100.00;97326.41;5047719;28;19928;-61
2023/01/17 09:13:14;;;;;;;;;;;;;;;2.57;100.00;97327.38;5047666;28;20369;-61
2023/01/17 09:15:39;;;;;;;;;;;;;;;4.15;100.00;97322.38;5065589;28;19920;-62
2023/01/17 09:18:05;;;;;;;;;;;;;;;6.37;100.00;97313.13;5051157;28;19959;-62
2023/01/17 09:20:30;;;;;;;;;;;;;;;8.70;94.83;97310.97;5042829;28;19928;-62
2023/01/17 09:22:56;;;;;;;;;;;;;;;10.88;68.23;97311.75;5052393;28;19968;-61
2023/01/17 09:25:21;;;;;;;;;;;;;;;12.72;54.61;97305.63;5049769;28;20290;-61
2023/01/17 09:27:46;;;;;;;;;;;;;;;13.02;49.63;97303.28;5051737;28;19971;-62
2023/01/17 09:30:12;;;;;;;;;;;;;;;13.59;47.53;97316.88;5042292;28;19916;-62
2023/01/17 09:32:37;;;;;;;;;;;;;;;13.70;45.54;97314.69;5050385;28;19917;-61
2023/01/17 09:35:04;;;;;;;;;;;;;;;13.75;45.01;97315.97;5051572;28;19925;-61
2023/01/17 09:37:29;;;;;;;;;;;;;;;14.32;43.52;97320.66;5066653;28;19943;-61
2023/01/17 09:39:54;;;;;;;;;;;;;;;14.99;42.13;97315.63;5051346;28;19924;-62
2023/01/17 09:42:22;;;;;;;;;;;;;;;15.59;40.83;97324.09;5049956;28;19932;-61
2023/01/17 09:44:52;;;;;;;;;;;;;;;16.14;39.15;97328.81;5049859;28;19940;-61
2023/01/17 09:47:36;;;;;;;;;;;;;;;16.23;38.28;97332.84;5066444;28;19960;-61
2023/01/17 09:50:24;;;;;;;;;;;;;;;15.95;38.46;97338.00;5050765;28;20342;-61
2023/01/17 09:52:59;;;;;;;;;;;;;;;16.88;36.90;97345.66;5025674;28;19925;-61
2023/01/17 09:55:24;;;;;;;;;;;;;;;15.07;38.24;97348.38;5051993;28;19921;-62
2023/01/17 09:58:01;;;;;;;;;;;;;;;16.73;36.70;97344.97;5061632;28;19989;-62
2023/01/17 10:00:29;;;;;;;;;;;;;;;17.27;34.87;97339.06;5050666;28;20009;-63
2023/01/17 10:03:10;;;;;;;;;;;;;;;15.98;36.45;97350.59;5054561;28;19928;-62
2023/01/17 10:05:48;;;;;;;;;;;;;;;16.13;37.48;97348.72;5037877;28;19918;-62
2023/01/17 10:08:26;;;;;;;;;;;;;;;17.35;35.02;97355.47;4943394;28;2957567;-61
2023/01/17 10:16:42;;;;;;;;;;;;;;;14.84;37.36;97344.91;5068349;27;19947;-61
2023/01/17 10:19:10;;;;;;;;;;;;;;;13.51;41.48;97346.16;5056302;28;19927;-61
2023/01/17 10:21:48;;;;;;;;;;;;;;;12.30;44.33;97348.72;5079802;27;19927;-61
2023/01/17 10:24:15;;;;;;;;;;;;;;;11.31;46.81;97346.00;5069724;28;19923;-61
2023/01/17 10:26:42;;;;;;;;;;;;;;;9.22;53.92;97352.47;5068555;28;19921;-62
2023/01/17 10:29:11;;;;;;;;;;;;;;;7.06;76.12;97350.03;5068100;28;20036;-60
2023/01/17 10:31:42;;;;;;;;;;;;;;;7.11;82.10;97346.13;5084402;28;19927;-61
2023/01/17 10:34:13;;;;;;;;;;;;;;;6.87;86.72;97345.63;5074112;28;19923;-61
2023/01/17 10:36:41;;;;;;;;;;;;;;;6.59;90.26;97347.91;5067940;28;20018;-61
2023/01/17 10:39:23;;;;;;;;;;;;;;;6.51;93.03;97358.78;5067371;28;19923;-62
2023/01/17 10:41:55;;;;;;;;;;;;;;;5.96;96.12;97357.13;5090938;28;19991;-60
2023/01/17 10:44:20;;;;;;;;;;;;;;;5.87;98.13;97359.63;5075854;28;19920;-61
2023/01/17 10:46:58;;;;;;;;;;;;;;;5.65;97.63;97346.00;5075928;28;19935;-61
2023/01/17 10:49:23;;;;;;;;;;;;;;;5.45;99.73;97353.44;5076526;28;19952;-61
2023/01/17 10:52:07;;;;;;;;;;;;;;;5.31;100.00;97351.19;5102369;28;20471;-61
2023/01/17 10:54:41;;;;;;;;;;;;;;;5.47;100.00;97350.78;5087562;28;19916;-61
2023/01/17 10:57:13;;;;;;;;;;;;;;;5.46;100.00;97344.88;5088330;28;20005;-61
2023/01/17 10:59:39;;;;;;;;;;;;;;;5.44;100.00;97340.84;5089243;28;19916;-62
2023/01/17 11:02:13;;;;;;;;;;;;;;;5.27;99.02;97344.69;5122693;27;20053;-62
2023/01/17 11:04:40;;;;;;;;;;;;;;;4.65;97.87;97337.41;5098985;28;20426;-62
2023/01/17 11:07:11;;;;;;;;;;;;;;;4.46;100.00;97342.25;5096520;28;19939;-61
2023/01/17 11:09:38;;;;;;;;;;;;;;;4.48;100.00;97337.84;5088819;28;19926;-62
2023/01/17 11:12:03;;;;;;;;;;;;;;;4.73;100.00;97336.03;5080142;27;19974;-61
2023/01/17 11:20:27;;;;;;;;;;;;;;;4.89;100.00;97328.03;4981844;27;3591954;-61
2023/01/17 11:23:11;;;;;;;;;;;;;;;4.91;96.33;97321.91;5061318;28;19921;-61
2023/01/17 11:25:36;;;;;;;;;;;;;;;4.97;97.35;97320.63;5047414;28;19920;-61
2023/01/17 11:28:19;;;;;;;;;;;;;;;4.99;93.90;97314.47;5048472;28;20004;-60
2023/01/17 11:31:07;;;;;;;;;;;;;;;4.90;87.94;97314.38;5063907;28;20002;-60
2023/01/17 11:33:43;;;;;;;;;;;;;;;4.66;88.63;97313.56;5053025;28;20325;-61
2023/01/17 11:36:15;;;;;;;;;;;;;;;4.36;89.85;97307.25;5085074;28;20007;-60
2023/01/17 11:38:52;;;;;;;;;;;;;;;4.45;91.11;97310.91;5048904;28;19917;-61
2023/01/17 11:41:20;;;;;;;;;;;;;;;4.30;93.74;97307.72;5048207;28;19925;-61
2023/01/17 11:43:59;;;;;;;;;;;;;;;4.42;96.62;97306.00;5069531;28;19987;-61
2023/01/17 11:46:25;;;;;;;;;;;;;;;4.58;98.04;97304.88;5063394;28;19921;-60
2023/01/17 11:48:51;;;;;;;;;;;;;;;4.67;95.09;97306.72;5048313;28;19917;-60
2023/01/17 11:51:19;;;;;;;;;;;;;;;4.69;97.61;97295.50;5058199;28;20011;-62
2023/01/17 11:53:47;;;;;;;;;;;;;;;4.59;98.92;97286.13;5059556;28;19917;-61
2023/01/17 11:56:32;;;;;;;;;;;;;;;4.44;96.59;97288.91;5079965;28;19932;-61
2023/01/17 11:59:06;;;;;;;;;;;;;;;4.59;97.47;97289.50;5063217;28;19916;-62
2023/01/17 12:01:31;;;;;;;;;;;;;;;4.67;91.72;97287.16;5051683;28;19968;-63
2023/01/17 12:03:56;;;;;;;;;;;;;;;4.69;92.07;97281.97;5056344;28;19975;-61
2023/01/17 12:06:24;;;;;;;;;;;;;;;4.78;93.69;97285.56;5047997;28;19979;-61
2023/01/17 12:08:53;;;;;;;;;;;;;;;4.69;92.68;97282.78;5048184;28;19931;-61
2023/01/17 12:11:30;;;;;;;;;;;;;;;4.70;95.67;97273.38;5039075;28;19924;-61
2023/01/17 12:14:02;;;;;;;;;;;;;;;4.45;94.99;97259.97;5036292;28;19921;-62
2023/01/17 12:16:29;;;;;;;;;;;;;;;4.65;95.48;97261.03;5040153;28;19963;-62
2023/01/17 12:19:14;;;;;;;;;;;;;;;4.62;94.92;97265.53;5036723;28;20012;-61
2023/01/17 12:22:00;;;;;;;;;;;;;;;4.63;95.58;97256.97;5044156;28;19928;-61
2023/01/17 12:24:28;;;;;;;;;;;;;;;4.41;92.37;97250.94;5044193;28;20289;-61
2023/01/17 12:27:16;;;;;;;;;;;;;;;4.33;95.14;97254.06;5027844;28;19918;-61
2023/01/17 12:29:47;;;;;;;;;;;;;;;4.19;92.11;97247.47;4997675;28;19976;-62
2023/01/17 12:32:24;;;;;;;;;;;;;;;4.17;91.76;97239.13;5037086;28;20032;-62
2023/01/17 12:34:49;;;;;;;;;;;;;;;4.00;93.32;97240.34;5034201;28;19924;-62
2023/01/17 12:40:04;;;;;;;;;;;;;;;4.07;98.75;97225.47;4856554;27;5846321;-60
2023/01/17 12:42:42;;;;;;;;;;;;;;;4.09;93.83;97227.91;5108270;28;20260;-60
2023/01/17 12:45:19;;;;;;;;;;;;;;;4.23;95.21;97221.78;5125370;28;19916;-61
2023/01/17 12:47:47;;;;;;;;;;;;;;;4.05;92.15;97227.31;5120666;28;20251;-60
2023/01/17 12:50:32;;;;;;;;;;;;;;;3.91;88.37;97217.34;5100091;28;19916;-60
2023/01/17 12:52:57;;;;;;;;;;;;;;;3.76;89.31;97220.09;5109954;27;19970;-60
2023/01/17 12:55:37;;;;;;;;;;;;;;;3.88;92.72;97219.19;5109192;28;19960;-60
2023/01/17 12:58:04;;;;;;;;;;;;;;;3.89;93.96;97212.38;5115360;28;19919;-60
2023/01/17 13:00:31;;;;;;;;;;;;;;;3.88;97.36;97213.28;5108835;27;19931;-59
2023/01/17 13:03:19;;;;;;;;;;;;;;;3.89;95.48;97199.66;5121380;28;19958;-60
2023/01/17 13:05:45;;;;;;;;;;;;;;;3.80;94.52;97201.13;5108994;28;19916;-60
2023/01/17 13:08:16;;;;;;;;;;;;;;;3.81;94.73;97204.50;5108700;28;19931;-60
2023/01/17 13:10:49;;;;;;;;;;;;;;;3.87;95.22;97198.97;5099684;28;20418;-60
2023/01/17 13:13:20;;;;;;;;;;;;;;;3.79;96.83;97201.25;5107366;28;19916;-62
2023/01/17 13:15:47;;;;;;;;;;;;;;;3.82;96.81;97194.22;5107690;28;19927;-63
2023/01/17 13:18:21;;;;;;;;;;;;;;;3.58;97.41;97201.09;5096162;28;19917;-62
2023/01/17 13:20:55;;;;;;;;;;;;;;;3.46;99.75;97195.16;5104822;28;19931;-62
2023/01/17 13:23:28;;;;;;;;;;;;;;;3.59;100.00;97190.81;5112251;28;19916;-62
2023/01/17 13:25:55;;;;;;;;;;;;;;;3.56;100.00;97193.59;5111349;28;19939;-61
2023/01/17 13:28:26;;;;;;;;;;;;;;;3.61;100.00;97190.69;5111712;27;20111;-59
2023/01/17 13:30:55;;;;;;;;;;;;;;;3.74;100.00;97191.41;5096301;28;19924;-61
2023/01/17 13:33:31;;;;;;;;;;;;;;;3.52;97.53;97190.44;5112113;28;19923;-60
2023/01/17 13:36:09;;;;;;;;;;;;;;;3.50;100.00;97192.28;5109473;28;19926;-60
2023/01/17 13:38:34;;;;;;;;;;;;;;;3.54;98.96;97196.22;5092803;28;20394;-60
2023/01/17 13:41:02;;;;;;;;;;;;;;;3.45;98.62;97193.53;5085475;27;19920;-60
2023/01/17 13:43:29;;;;;;;;;;;;;;;3.26;97.99;97194.03;5078847;28;19928;-59
2023/01/17 13:45:56;;;;;;;;;;;;;;;3.33;99.42;97197.78;5081938;28;19916;-60
2023/01/17 13:48:22;;;;;;;;;;;;;;;3.46;100.00;97203.59;5068273;28;19920;-61
2023/01/17 13:50:52;;;;;;;;;;;;;;;3.54;100.00;97205.59;5054889;28;20311;-60
2023/01/17 13:53:32;;;;;;;;;;;;;;;3.45;100.00;97204.53;5072068;28;19921;-61
2023/01/17 13:56:01;;;;;;;;;;;;;;;3.31;100.00;97208.06;5062689;28;19920;-60
2023/01/17 13:58:27;;;;;;;;;;;;;;;3.22;100.00;97209.50;5066969;28;19974;-63
2023/01/17 14:00:53;;;;;;;;;;;;;;;3.36;100.00;97212.78;5049059;28;19924;-60
2023/01/17 14:03:37;;;;;;;;;;;;;;;3.51;100.00;97210.88;5070416;28;20012;-60
2023/01/17 14:06:03;;;;;;;;;;;;;;;3.67;100.00;97201.25;5066033;28;20337;-63
2023/01/17 14:08:28;;;;;;;;;;;;;;;3.64;100.00;97201.44;5067853;28;19967;-62
2023/01/17 14:11:03;;;;;;;;;;;;;;;3.44;100.00;97204.63;5048872;28;19923;-62
2023/01/17 14:13:35;;;;;;;;;;;;;;;3.39;100.00;97198.13;5084604;28;20291;-63
2023/01/17 14:16:02;;;;;;;;;;;;;;;3.43;99.13;97180.94;5108200;28;19924;-63
2023/01/17 14:18:32;;;;;;;;;;;;;;;3.30;100.00;97188.63;5084887;28;20043;-62
2023/01/17 14:21:16;;;;;;;;;;;;;;;3.22;100.00;97184.13;5065634;28;20289;-63
2023/01/17 14:23:50;;;;;;;;;;;;;;;3.10;100.00;97174.00;5077409;28;19929;-62
2023/01/17 14:26:21;;;;;;;;;;;;;;;3.01;100.00;97175.47;5061865;28;20007;-61
2023/01/17 14:28:46;;;;;;;;;;;;;;;3.07;100.00;97180.09;5069890;28;19936;-63